Time;durP1;ratioP1;P1;durP2;ratioP2;P2;SDS_P1;SDS_P2;PMS_P1;PMS_P2;Temp;Humidity;BMP_temperature;BMP_pressure;BME280_temperature;BME280_humidity;BME280_pressure;Samples;Min_cycle;Max_cycle;Signal;HPM_P1;HPM_P2
2022/07/21 00:01:07;;;;;;;2.63;2.40;;;;;;;15.16;82.24;97912.59;5034777;28;20462;-65
2022/07/21 00:03:33;;;;;;;1.98;1.80;;;;;;;15.19;82.28;97911.19;5052032;28;20097;-65
2022/07/21 00:05:58;;;;;;;4.65;2.05;;;;;;;15.20;82.05;97910.88;5052797;28;20036;-66
2022/07/21 00:08:24;;;;;;;6.00;1.75;;;;;;;15.21;82.33;97912.47;5032565;28;20092;-66
2022/07/21 00:10:50;;;;;;;1.60;1.50;;;;;;;15.24;82.01;97905.75;5033197;28;20076;-65
2022/07/21 00:13:16;;;;;;;3.20;2.05;;;;;;;15.25;81.86;97914.53;5033061;28;20129;-64
2022/07/21 00:15:41;;;;;;;4.13;2.20;;;;;;;15.27;81.99;97917.69;5033129;28;20046;-65
2022/07/21 00:18:07;;;;;;;2.97;1.80;;;;;;;15.29;81.82;97912.81;5033164;28;20045;-67
2022/07/21 00:20:33;;;;;;;2.78;2.42;;;;;;;15.30;81.97;97917.09;5031658;28;20143;-67
2022/07/21 00:22:59;;;;;;;2.75;1.85;;;;;;;15.24;81.72;97916.41;5032625;28;20063;-65
2022/07/21 00:25:25;;;;;;;5.05;3.58;;;;;;;15.24;81.83;97913.75;5043708;28;20497;-66
2022/07/21 00:27:50;;;;;;;4.50;2.58;;;;;;;15.24;82.21;97919.09;5052998;28;20048;-66
2022/07/21 00:30:17;;;;;;;2.17;1.98;;;;;;;15.22;82.11;97918.59;5053037;28;20556;-66
2022/07/21 00:32:43;;;;;;;3.42;2.80;;;;;;;15.21;82.15;97914.38;5052783;28;20040;-65
2022/07/21 00:35:10;;;;;;;3.38;2.13;;;;;;;15.20;81.90;97924.22;5052777;28;20102;-65
2022/07/21 00:37:36;;;;;;;5.65;3.53;;;;;;;15.22;82.19;97916.72;5050066;28;20060;-66
2022/07/21 00:40:03;;;;;;;6.70;2.45;;;;;;;15.20;82.24;97915.44;5052050;28;20044;-65
2022/07/21 00:42:30;;;;;;;3.08;2.47;;;;;;;15.24;81.92;97915.63;5052479;28;20037;-67
2022/07/21 00:44:57;;;;;;;6.28;2.50;;;;;;;15.19;82.18;97920.00;5052632;28;20047;-66
2022/07/21 00:47:24;;;;;;;6.55;3.85;;;;;;;15.20;82.09;97926.09;5051029;28;20041;-65
2022/07/21 00:49:50;;;;;;;4.80;3.97;;;;;;;15.18;82.32;97921.09;5052600;28;20047;-65
2022/07/21 00:52:16;;;;;;;4.82;2.63;;;;;;;15.17;82.25;97916.81;5052447;28;20066;-65
2022/07/21 00:54:42;;;;;;;5.63;3.58;;;;;;;15.22;81.97;97910.59;5052298;28;20048;-67
2022/07/21 00:57:08;;;;;;;5.85;3.80;;;;;;;15.21;82.46;97909.03;5016805;28;20041;-65
2022/07/21 00:59:34;;;;;;;7.28;4.57;;;;;;;15.17;82.93;97918.72;5052469;28;20121;-67
2022/07/21 01:02:00;;;;;;;5.05;4.40;;;;;;;15.16;82.94;97911.81;5052079;28;20072;-66
2022/07/21 01:04:26;;;;;;;5.93;4.60;;;;;;;15.16;82.96;97911.81;5051521;28;20044;-66
2022/07/21 01:06:53;;;;;;;4.35;2.60;;;;;;;15.16;82.59;97917.16;5051971;28;20135;-65
2022/07/21 01:09:20;;;;;;;4.15;3.35;;;;;;;15.15;83.08;97910.25;5052159;28;20103;-64
2022/07/21 01:11:46;;;;;;;4.20;3.33;;;;;;;15.14;82.75;97904.09;5051881;28;20170;-64
2022/07/21 01:14:12;;;;;;;5.05;2.92;;;;;;;15.17;83.15;97911.50;5051668;28;20084;-64
2022/07/21 01:16:38;;;;;;;4.32;3.45;;;;;;;15.17;82.89;97916.81;5050530;28;20063;-65
2022/07/21 01:19:06;;;;;;;3.70;3.10;;;;;;;15.15;82.72;97905.69;5030408;28;20033;-66
2022/07/21 01:21:36;;;;;;;4.07;3.67;;;;;;;15.12;83.35;97905.50;5031733;28;20060;-64
2022/07/21 01:24:02;;;;;;;;;;;;;;;15.18;83.21;97913.09;5032503;28;20491;-64
2022/07/21 01:26:29;;;;;;;5.15;3.45;;;;;;;15.22;83.26;97905.25;5041563;28;19925;-65
2022/07/21 01:28:55;;;;;;;7.22;4.40;;;;;;;15.27;82.49;97907.03;5051991;28;20040;-66
2022/07/21 01:31:21;;;;;;;5.82;5.30;;;;;;;15.27;82.68;97904.34;5051575;28;20399;-66
2022/07/21 01:33:47;;;;;;;4.03;3.60;;;;;;;15.25;82.44;97904.66;5051591;28;20102;-65
2022/07/21 01:36:13;;;;;;;3.60;2.97;;;;;;;15.25;82.82;97914.53;5051020;28;20404;-67
2022/07/21 01:41:29;;;;;;;6.35;3.78;;;;;;;15.21;82.88;97904.47;5051733;28;20052;-66
2022/07/21 01:43:59;;;;;;;5.40;3.05;;;;;;;15.24;83.15;97911.09;5052051;28;20163;-65
2022/07/21 01:46:25;;;;;;;5.35;4.05;;;;;;;15.26;83.09;97913.44;5038084;28;20053;-64
2022/07/21 01:48:51;;;;;;;5.10;2.90;;;;;;;15.26;83.26;97905.44;5032085;28;20045;-65
2022/07/21 01:51:17;;;;;;;4.15;3.30;;;;;;;15.27;83.01;97904.34;5031588;28;20566;-66
2022/07/21 01:53:42;;;;;;;5.18;2.60;;;;;;;15.29;83.25;97908.28;5031877;28;20041;-65
2022/07/21 01:56:08;;;;;;;5.18;2.55;;;;;;;15.25;82.77;97909.97;5031558;28;20046;-66
2022/07/21 01:58:35;;;;;;;3.28;2.72;;;;;;;15.22;83.29;97906.03;5030436;28;20281;-64
2022/07/21 02:01:01;;;;;;;6.03;4.82;;;;;;;15.20;83.23;97905.53;5030277;28;20053;-64
2022/07/21 02:03:26;;;;;;;3.63;2.88;;;;;;;15.27;83.46;97907.81;5031679;28;20094;-65
2022/07/21 02:05:52;;;;;;;2.42;2.22;;;;;;;15.34;83.11;97912.72;5029823;28;20045;-64
2022/07/21 02:08:18;;;;;;;7.90;4.93;;;;;;;15.40;82.81;97903.47;5031610;28;20045;-64
2022/07/21 02:10:43;;;;;;;3.95;2.45;;;;;;;15.38;82.66;97913.66;5031559;28;20041;-65
2022/07/21 02:13:09;;;;;;;7.10;5.20;;;;;;;15.38;82.57;97919.00;5031341;28;20052;-64
2022/07/21 02:15:55;;;;;;;6.15;4.70;;;;;;;15.33;82.64;97916.47;5030561;28;20056;-65
2022/07/21 02:18:21;;;;;;;5.05;4.40;;;;;;;15.26;82.83;97908.09;5031547;28;20033;-65
2022/07/21 02:20:50;;;;;;;3.15;2.63;;;;;;;15.25;82.99;97909.97;5031279;28;20052;-66
2022/07/21 02:23:17;;;;;;;4.73;3.40;;;;;;;15.22;83.43;97897.25;5029981;28;20133;-65
2022/07/21 02:25:43;;;;;;;4.60;3.65;;;;;;;15.31;82.71;97906.09;5030790;28;20132;-65
2022/07/21 02:28:09;;;;;;;6.15;4.25;;;;;;;15.30;83.13;97898.41;5031436;28;20041;-65
2022/07/21 02:30:36;;;;;;;3.25;2.88;;;;;;;15.30;83.41;97895.75;5029822;28;20103;-64
2022/07/21 02:33:01;;;;;;;3.63;2.85;;;;;;;15.22;83.82;97890.03;5031298;28;20510;-64
2022/07/21 02:35:27;;;;;;;4.25;2.80;;;;;;;15.29;84.17;97900.25;5030164;28;20049;-65
2022/07/21 02:37:53;;;;;;;3.78;2.65;;;;;;;15.27;84.01;97896.34;5031309;28;20050;-65
2022/07/21 02:40:19;;;;;;;3.28;2.90;;;;;;;15.29;83.84;97896.81;5031033;28;20046;-66
2022/07/21 02:42:44;;;;;;;2.63;2.42;;;;;;;15.32;83.53;97891.66;5029779;28;20041;-66
2022/07/21 02:45:11;;;;;;;3.60;3.20;;;;;;;15.33;83.83;97887.13;5031861;28;20052;-65
2022/07/21 02:47:50;;;;;;;3.33;2.72;;;;;;;15.33;83.71;97895.91;5034389;28;20501;-64
2022/07/21 02:50:16;;;;;;;4.90;3.70;;;;;;;15.36;83.89;97889.19;5034000;28;20128;-64
2022/07/21 02:52:42;;;;;;;4.00;3.42;;;;;;;15.40;83.85;97892.81;5017489;28;20478;-65
2022/07/21 02:55:09;;;;;;;3.75;3.22;;;;;;;15.44;83.91;97899.09;5045306;28;20052;-66
2022/07/21 02:57:36;;;;;;;5.63;5.03;;;;;;;15.45;83.44;97895.34;5053572;28;20517;-64
2022/07/21 03:00:05;;;;;;;4.78;4.00;;;;;;;15.37;83.29;97902.22;5054936;28;20044;-67
2022/07/21 03:02:31;;;;;;;5.38;4.00;;;;;;;15.34;84.24;97902.81;5036974;28;20037;-64
2022/07/21 03:04:57;;;;;;;9.45;4.35;;;;;;;15.34;84.10;97905.47;5053227;28;20077;-65
2022/07/21 03:07:23;;;;;;;5.50;4.68;;;;;;;15.35;84.46;97909.75;5034985;28;20125;-65
2022/07/21 03:09:48;;;;;;;5.93;4.72;;;;;;;15.36;84.72;97897.97;5034857;28;20456;-66
2022/07/21 03:12:14;;;;;;;4.63;4.22;;;;;;;15.35;84.44;97903.59;5034752;28;20046;-64
2022/07/21 03:14:40;;;;;;;4.97;4.35;;;;;;;15.34;84.27;97904.69;5034548;28;20132;-64
2022/07/21 03:17:05;;;;;;;3.45;2.40;;;;;;;15.28;84.07;97906.72;5034823;28;20541;-65
2022/07/21 03:19:31;;;;;;;3.08;2.78;;;;;;;15.30;84.86;97891.19;5034677;28;20048;-66
2022/07/21 03:21:57;;;;;;;5.95;2.95;;;;;;;15.36;84.85;97905.97;5034568;28;20041;-65
2022/07/21 03:24:22;;;;;;;3.20;2.90;;;;;;;15.36;84.41;97905.97;5034385;28;20045;-66
2022/07/21 03:26:48;;;;;;;5.80;2.83;;;;;;;15.35;84.26;97909.75;5034701;28;20037;-67
2022/07/21 03:29:14;;;;;;;5.53;2.80;;;;;;;15.38;84.59;97909.13;5033174;28;20410;-65
2022/07/21 03:31:39;;;;;;;2.72;2.53;;;;;;;15.42;84.63;97911.97;5034665;28;20116;-66
2022/07/21 03:34:05;;;;;;;3.03;2.35;;;;;;;15.51;84.48;97912.03;5034268;28;20057;-66
2022/07/21 03:36:31;;;;;;;3.13;2.10;;;;;;;15.64;84.32;97903.16;5033092;28;20050;-66
2022/07/21 03:38:57;;;;;;;2.88;2.28;;;;;;;15.62;83.75;97895.44;5032898;28;20337;-66
2022/07/21 03:41:22;;;;;;;3.22;2.40;;;;;;;15.77;83.37;97904.97;5016410;28;20499;-67
2022/07/21 03:43:48;;;;;;;2.08;1.88;;;;;;;15.77;83.17;97896.97;5033507;28;20053;-66
2022/07/21 03:46:14;;;;;;;3.28;2.33;;;;;;;15.80;83.26;97895.56;5034112;28;20495;-68
2022/07/21 03:48:39;;;;;;;2.30;2.10;;;;;;;15.83;83.52;97898.41;5034307;28;20052;-66
2022/07/21 03:51:06;;;;;;;2.10;1.90;;;;;;;15.92;82.87;97897.66;5034209;28;20045;-67
2022/07/21 03:53:32;;;;;;;2.88;2.40;;;;;;;16.00;82.54;97900.38;5034233;28;20048;-66
2022/07/21 03:55:57;;;;;;;2.63;2.28;;;;;;;16.12;82.21;97899.78;5016294;28;20431;-68
2022/07/21 03:58:23;;;;;;;3.05;2.28;;;;;;;16.15;81.85;97896.50;5033459;28;20048;-66
2022/07/21 04:00:49;;;;;;;8.88;2.60;;;;;;;16.17;81.66;97909.53;5034103;28;20041;-66
2022/07/21 04:03:15;;;;;;;3.22;2.40;;;;;;;16.11;82.01;97911.56;5033778;28;20439;-67
2022/07/21 04:05:41;;;;;;;3.05;2.30;;;;;;;16.03;82.48;97909.63;5052880;28;20482;-67
2022/07/21 04:08:08;;;;;;;2.95;2.40;;;;;;;16.09;82.38;97909.19;5053765;28;20045;-66
2022/07/21 04:10:36;;;;;;;3.08;2.40;;;;;;;16.07;81.77;97913.28;5053766;28;20052;-67
2022/07/21 04:13:04;;;;;;;2.58;2.38;;;;;;;16.06;81.60;97912.50;5044765;28;20040;-69
2022/07/21 04:15:30;;;;;;;5.60;2.25;;;;;;;16.02;81.31;97916.88;5033848;28;20056;-64
2022/07/21 04:17:56;;;;;;;2.63;2.40;;;;;;;15.97;81.17;97919.69;5032132;28;20045;-68
2022/07/21 04:20:22;;;;;;;3.25;2.53;;;;;;;15.90;81.56;97920.13;5033501;28;20095;-68
2022/07/21 04:22:49;;;;;;;3.10;2.35;;;;;;;16.00;81.49;97926.28;5033233;28;20073;-67
2022/07/21 04:25:15;;;;;;;2.95;2.30;;;;;;;16.03;80.74;97928.34;5033582;28;20148;-66
2022/07/21 04:27:41;;;;;;;3.75;2.40;;;;;;;16.20;80.76;97927.63;5033403;28;20049;-65
2022/07/21 04:30:09;;;;;;;2.40;2.20;;;;;;;16.41;79.66;97936.63;5033273;28;20037;-64
2022/07/21 04:32:35;;;;;;;2.60;1.92;;;;;;;16.56;79.53;97924.75;5033519;28;20053;-66
2022/07/21 04:35:01;;;;;;;2.60;2.40;;;;;;;16.58;78.71;97920.63;5032102;28;20392;-67
2022/07/21 04:37:29;;;;;;;2.20;2.00;;;;;;;16.72;78.36;97917.03;5033384;28;20096;-64
2022/07/21 04:39:54;;;;;;;3.28;2.33;;;;;;;16.99;77.58;97919.44;5042108;28;20045;-65
2022/07/21 04:42:20;;;;;;;2.67;2.20;;;;;;;17.15;76.83;97925.13;5051727;28;20455;-64
2022/07/21 04:44:46;;;;;;;2.80;2.60;;;;;;;17.17;75.82;97927.47;5033263;28;20099;-65
2022/07/21 04:47:11;;;;;;;3.22;1.90;;;;;;;17.09;75.25;97930.94;5031589;28;20053;-69
2022/07/21 04:49:37;;;;;;;2.78;2.10;;;;;;;17.05;75.40;97930.78;5034265;28;20065;-67
2022/07/21 04:52:03;;;;;;;3.40;2.10;;;;;;;17.03;76.05;97923.09;5031452;28;20140;-66
2022/07/21 04:54:28;;;;;;;2.53;2.33;;;;;;;17.15;75.33;97922.44;5033023;28;20045;-66
2022/07/21 04:56:55;;;;;;;3.17;2.17;;;;;;;17.19;74.35;97923.38;5032811;28;20491;-66
2022/07/21 04:59:21;;;;;;;4.18;2.50;;;;;;;17.38;74.24;97908.84;5031493;28;20579;-65
2022/07/21 05:01:46;;;;;;;2.53;2.10;;;;;;;18.03;72.55;97907.78;5032838;28;20094;-64
2022/07/21 05:04:12;;;;;;;2.33;1.90;;;;;;;18.25;70.31;97928.16;5051126;28;20053;-66
2022/07/21 05:06:38;;;;;;;1.88;1.67;;;;;;;18.15;68.17;97928.53;5052394;28;20398;-66
2022/07/21 05:09:04;;;;;;;2.17;1.80;;;;;;;17.88;68.58;97925.19;5051307;28;20422;-65
2022/07/21 05:11:29;;;;;;;3.45;2.22;;;;;;;17.84;69.84;97926.91;5043855;28;20049;-68
2022/07/21 05:13:55;;;;;;;2.35;1.88;;;;;;;17.91;69.27;97913.00;5014755;28;20072;-69
2022/07/21 05:16:21;;;;;;;2.10;1.90;;;;;;;18.04;69.27;97909.34;5032483;28;20045;-69
2022/07/21 05:18:47;;;;;;;2.05;1.73;;;;;;;18.12;69.27;97913.09;5032736;28;20033;-68
2022/07/21 05:21:12;;;;;;;2.20;2.00;;;;;;;18.18;69.07;97911.81;5032250;28;20056;-70
2022/07/21 05:23:38;;;;;;;3.20;2.10;;;;;;;18.29;68.53;97917.56;5040784;28;20037;-67
2022/07/21 05:26:04;;;;;;;2.10;1.90;;;;;;;18.25;68.21;97913.97;5030887;28;20132;-69
2022/07/21 05:28:30;;;;;;;2.65;2.38;;;;;;;18.10;69.35;97912.63;5032066;28;20049;-68
2022/07/21 05:30:55;;;;;;;4.38;1.90;;;;;;;17.98;70.04;97912.53;5040024;28;20140;-67
2022/07/21 05:33:21;;;;;;;2.80;1.95;;;;;;;17.85;69.79;97920.47;5052334;28;20487;-68
2022/07/21 05:35:47;;;;;;;1.98;1.88;;;;;;;17.81;69.34;97921.41;5051946;28;20422;-67
2022/07/21 05:38:12;;;;;;;2.22;2.00;;;;;;;17.77;70.63;97923.91;5051992;28;20044;-68
2022/07/21 05:40:38;;;;;;;2.35;1.95;;;;;;;17.74;71.17;97932.59;5051893;28;20120;-69
2022/07/21 05:43:04;;;;;;;1.98;1.88;;;;;;;17.74;69.79;97937.19;5049883;28;20045;-68
2022/07/21 05:45:29;;;;;;;2.65;1.80;;;;;;;17.77;69.92;97944.56;5051543;28;20080;-66
2022/07/21 05:47:55;;;;;;;3.40;1.90;;;;;;;17.68;68.79;97939.25;5016031;28;20076;-66
2022/07/21 05:50:20;;;;;;;2.00;1.80;;;;;;;17.60;69.53;97940.81;5044117;28;20503;-66
2022/07/21 05:52:46;;;;;;;3.30;1.90;;;;;;;17.62;69.53;97951.22;5041125;28;20048;-66
2022/07/21 05:55:12;;;;;;;2.60;1.73;;;;;;;17.51;69.92;97947.31;5032873;28;20045;-68
2022/07/21 05:57:38;;;;;;;1.75;1.63;;;;;;;17.51;70.71;97955.34;5031827;28;20483;-66
2022/07/21 06:00:04;;;;;;;2.38;1.85;;;;;;;17.63;70.47;97953.56;5031864;28;20045;-66
2022/07/21 06:02:34;;;;;;;2.10;1.90;;;;;;;17.73;70.27;97949.75;5031539;28;20123;-68
2022/07/21 06:05:00;;;;;;;2.15;1.77;;;;;;;17.75;69.80;97963.63;5031313;28;20603;-69
2022/07/21 06:07:25;;;;;;;2.28;1.60;;;;;;;17.64;69.81;97963.19;5032010;28;20051;-68
2022/07/21 06:09:51;;;;;;;4.13;1.75;;;;;;;17.56;70.75;97957.84;5031196;28;20411;-70
2022/07/21 06:12:17;;;;;;;1.90;1.52;;;;;;;17.62;70.24;97956.59;5031672;28;20137;-66
2022/07/21 06:14:43;;;;;;;1.80;1.70;;;;;;;17.81;69.39;97967.75;5030324;28;20061;-67
2022/07/21 06:17:08;;;;;;;1.90;1.70;;;;;;;17.89;69.28;97977.66;5031282;28;20560;-66
2022/07/21 06:19:40;;;;;;;2.75;1.85;;;;;;;18.11;69.18;97968.59;5032193;28;20037;-68
2022/07/21 06:22:08;;;;;;;1.77;1.67;;;;;;;18.10;69.58;97959.00;4978053;28;20037;-66
2022/07/21 06:24:34;;;;;;;1.95;1.70;;;;;;;17.99;68.64;97967.72;5043457;28;20091;-67
2022/07/21 06:26:59;;;;;;;2.20;2.00;;;;;;;17.87;68.54;97979.09;5046440;28;20048;-67
2022/07/21 06:29:25;;;;;;;2.90;1.83;;;;;;;18.06;67.87;97960.75;5035252;28;20057;-67
2022/07/21 06:31:51;;;;;;;4.60;1.92;;;;;;;18.13;68.18;97969.06;4994580;28;20511;-66
2022/07/21 06:34:16;;;;;;;2.88;2.00;;;;;;;18.09;67.25;97965.47;5031529;28;20148;-65
2022/07/21 06:36:42;;;;;;;1.80;1.70;;;;;;;18.22;67.78;97962.91;5028949;28;20091;-64
2022/07/21 06:39:08;;;;;;;2.20;1.80;;;;;;;18.53;67.01;97968.75;5046827;28;20041;-64
2022/07/21 06:41:34;;;;;;;2.65;2.10;;;;;;;18.56;67.10;97969.97;5046870;28;20072;-67
2022/07/21 06:44:08;;;;;;;2.50;1.75;;;;;;;18.43;66.62;97979.06;5048109;28;20056;-68
2022/07/21 06:46:34;;;;;;;2.33;1.75;;;;;;;18.12;67.50;97985.50;5046337;28;20047;-65
2022/07/21 06:49:00;;;;;;;2.20;1.80;;;;;;;17.99;67.37;97989.94;5030615;28;20095;-66
2022/07/21 06:51:26;;;;;;;2.63;1.90;;;;;;;18.03;67.65;97985.53;5027730;28;20045;-63
2022/07/21 06:53:53;;;;;;;2.10;1.90;;;;;;;18.21;67.15;97991.63;5036649;28;20269;-67
2022/07/21 06:56:19;;;;;;;2.08;1.95;;;;;;;18.27;66.73;98013.69;4993784;28;20049;-66
2022/07/21 06:58:45;;;;;;;2.85;1.73;;;;;;;18.14;67.49;97999.34;5027914;28;20585;-65
2022/07/21 07:01:10;;;;;;;2.28;2.08;;;;;;;18.04;67.38;98026.53;5027262;28;20048;-67
2022/07/21 07:03:37;;;;;;;2.20;2.00;;;;;;;18.05;67.68;97994.03;5029046;28;20049;-65
2022/07/21 07:06:04;;;;;;;1.88;1.63;;;;;;;18.13;68.07;98019.25;5011104;28;20048;-65
2022/07/21 07:08:29;;;;;;;3.15;1.60;;;;;;;18.13;68.34;98003.94;5026818;28;20105;-66
2022/07/21 07:10:55;;;;;;;4.65;2.00;;;;;;;18.15;68.03;98007.09;5034471;28;20490;-64
2022/07/21 07:13:21;;;;;;;1.98;1.88;;;;;;;18.23;68.52;97999.31;5046856;28;20537;-64
2022/07/21 07:15:47;;;;;;;2.20;1.83;;;;;;;18.28;69.62;98021.41;5041878;28;20108;-64
2022/07/21 07:18:12;;;;;;;2.95;2.08;;;;;;;18.21;68.97;98013.06;5028272;28;20085;-65
2022/07/21 07:20:38;;;;;;;2.95;2.10;;;;;;;18.04;69.52;98024.63;5036211;28;20037;-67
2022/07/21 07:23:04;;;;;;;2.60;1.70;;;;;;;17.89;71.73;98033.19;5047159;28;20048;-69
2022/07/21 07:25:30;;;;;;;3.65;1.88;;;;;;;17.62;71.57;98036.97;5047065;28;20041;-69
2022/07/21 07:27:57;;;;;;;2.20;1.52;;;;;;;17.38;73.13;98034.75;5045636;28;20041;-64
2022/07/21 07:30:24;;;;;;;2.05;1.85;;;;;;;17.10;74.33;98050.31;5038542;28;20041;-66
2022/07/21 07:32:49;;;;;;;2.10;2.00;;;;;;;17.11;75.22;98054.56;5027722;28;20073;-67
2022/07/21 07:35:16;;;;;;;2.13;1.80;;;;;;;17.12;75.42;98053.47;5048483;28;20225;-67
2022/07/21 07:37:45;;;;;;;2.58;2.00;;;;;;;17.37;76.17;98055.38;5029929;28;20161;-70
2022/07/21 07:40:13;;;;;;;2.10;1.90;;;;;;;17.52;75.17;98051.47;5049168;28;20039;-67
2022/07/21 07:42:39;;;;;;;2.40;2.20;;;;;;;17.45;74.73;98056.50;5027348;28;20052;-67
2022/07/21 07:45:07;;;;;;;2.72;2.10;;;;;;;17.38;76.17;98062.34;5029595;28;20053;-68
2022/07/21 07:47:33;;;;;;;2.78;2.08;;;;;;;17.23;76.91;98074.28;5029247;28;20172;-69
2022/07/21 07:49:59;;;;;;;2.38;2.08;;;;;;;17.10;79.24;98080.56;5029814;28;20042;-70
2022/07/21 07:52:25;;;;;;;2.20;2.00;;;;;;;16.96;79.24;98077.22;5027605;28;20047;-69
2022/07/21 07:54:50;;;;;;;3.33;2.15;;;;;;;16.89;79.75;98077.69;5029701;28;20045;-68
2022/07/21 07:57:16;;;;;;;2.20;2.00;;;;;;;16.81;79.29;98097.16;5022196;28;20793;-68
2022/07/21 07:59:42;;;;;;;1.95;1.80;;;;;;;16.71;79.74;98102.78;5031297;28;20041;-68
2022/07/21 08:02:08;;;;;;;2.70;1.92;;;;;;;16.61;82.75;98103.81;5028740;28;20158;-67
2022/07/21 08:04:35;;;;;;;2.47;2.28;;;;;;;16.63;84.40;98100.84;5028854;28;20044;-66
2022/07/21 08:07:01;;;;;;;4.57;2.10;;;;;;;16.92;82.17;98093.13;5028792;28;20077;-66
2022/07/21 08:09:27;;;;;;;1.85;1.65;;;;;;;17.30;80.40;98102.50;5042530;28;20037;-66
2022/07/21 08:11:53;;;;;;;2.60;2.03;;;;;;;17.64;78.21;98102.53;5047066;28;20047;-65
2022/07/21 08:14:19;;;;;;;2.78;2.08;;;;;;;17.83;79.02;98104.16;5049371;28;20579;-66
2022/07/21 08:16:45;;;;;;;2.58;1.92;;;;;;;17.84;76.69;98087.72;5047886;28;20033;-67
2022/07/21 08:19:11;;;;;;;2.05;1.85;;;;;;;18.29;74.56;98106.13;5049056;28;20087;-67
2022/07/21 08:21:37;;;;;;;1.70;1.60;;;;;;;18.51;74.33;98110.50;5048313;28;20063;-64
2022/07/21 08:24:04;;;;;;;1.85;1.67;;;;;;;18.47;73.64;98114.13;5040344;28;20045;-65
2022/07/21 08:26:29;;;;;;;2.00;1.83;;;;;;;18.23;74.53;98104.72;5030892;28;20033;-64
2022/07/21 08:28:56;;;;;;;3.30;2.00;;;;;;;18.21;74.48;98098.13;5025730;28;20159;-65
2022/07/21 08:31:23;;;;;;;3.22;2.00;;;;;;;18.31;74.43;98105.81;5033472;28;20037;-66
2022/07/21 08:33:50;;;;;;;1.80;1.70;;;;;;;18.38;73.08;98120.31;5029460;28;20126;-67
2022/07/21 08:36:17;;;;;;;2.15;1.95;;;;;;;18.46;72.75;98113.34;5030683;28;20037;-66
2022/07/21 08:38:43;;;;;;;2.10;1.83;;;;;;;18.48;71.59;98123.75;5046673;28;20659;-65
2022/07/21 08:41:08;;;;;;;2.42;1.60;;;;;;;18.37;70.11;98142.09;5050929;28;20041;-67
2022/07/21 08:43:35;;;;;;;1.52;1.42;;;;;;;18.38;70.10;98125.69;5046315;28;20041;-66
2022/07/21 08:46:02;;;;;;;1.60;1.50;;;;;;;18.41;70.25;98129.59;5031625;28;20069;-68
2022/07/21 08:48:29;;;;;;;1.88;1.60;;;;;;;18.51;69.38;98136.53;5027766;28;20041;-66
2022/07/21 08:50:55;;;;;;;1.70;1.60;;;;;;;18.76;69.01;98141.06;5031187;28;20450;-66
2022/07/21 08:53:22;;;;;;;1.77;1.67;;;;;;;19.08;66.16;98146.94;5048113;28;20490;-65
2022/07/21 08:55:48;;;;;;;1.70;1.60;;;;;;;19.32;65.95;98145.53;5043220;28;20120;-64
2022/07/21 08:58:13;;;;;;;1.48;1.45;;;;;;;19.36;65.78;98149.94;5031029;28;20462;-63
2022/07/21 09:00:51;;;;;;;2.45;1.67;;;;;;;19.26;67.06;98147.63;5048824;28;20075;-65
2022/07/21 09:03:23;;;;;;;2.00;1.63;;;;;;;19.02;69.24;98167.03;5048829;28;20052;-65
2022/07/21 09:06:11;;;;;;;1.88;1.73;;;;;;;19.10;67.79;98166.22;5050511;28;20387;-65
2022/07/21 09:08:58;;;;;;;2.17;1.50;;;;;;;19.02;66.04;98185.81;5050594;28;20055;-66
2022/07/21 09:11:26;;;;;;;1.90;1.80;;;;;;;19.11;66.20;98180.41;5050299;28;20132;-66
2022/07/21 09:14:10;;;;;;;1.90;1.65;;;;;;;19.44;64.27;98194.00;5048842;28;20091;-66
2022/07/21 09:16:39;;;;;;;1.63;1.52;;;;;;;19.35;64.10;98177.91;5031552;28;20513;-67
2022/07/21 09:19:06;;;;;;;2.15;1.35;;;;;;;19.16;62.86;98194.47;5048359;28;20057;-66
2022/07/21 09:21:34;;;;;;;1.95;1.40;;;;;;;18.95;62.17;98180.19;5013992;28;20045;-64
2022/07/21 09:24:28;;;;;;;4.40;1.40;;;;;;;18.86;63.06;98185.56;5049664;28;20098;-64
2022/07/21 09:27:15;;;;;;;1.40;1.30;;;;;;;19.17;62.90;98187.97;5048927;28;20051;-65
2022/07/21 09:29:44;;;;;;;1.85;1.42;;;;;;;19.52;62.16;98187.78;5049613;28;20048;-65
2022/07/21 09:32:22;;;;;;;2.42;1.58;;;;;;;19.48;62.77;98209.16;5049485;28;20051;-65
2022/07/21 09:35:09;;;;;;;2.53;1.70;;;;;;;19.63;61.12;98207.81;5048693;28;20107;-65
2022/07/21 09:37:36;;;;;;;1.52;1.30;;;;;;;19.59;60.70;98220.34;5046673;28;20552;-65
2022/07/21 09:40:07;;;;;;;2.42;1.40;;;;;;;19.51;60.14;98224.63;5046343;28;20056;-64
2022/07/21 09:42:37;;;;;;;2.85;1.20;;;;;;;19.47;58.93;98241.72;5047486;28;20491;-65
2022/07/21 09:45:05;;;;;;;;;;;;;;;19.49;59.85;98212.63;5049394;28;20090;-64
2022/07/21 09:47:32;;;;;;;1.75;1.40;;;;;;;19.44;59.27;98213.63;5048055;28;20457;-66
2022/07/21 09:49:58;;;;;;;1.55;1.45;;;;;;;19.43;59.14;98216.63;5038644;28;20045;-66
2022/07/21 09:52:26;;;;;;;7.60;1.60;;;;;;;19.41;58.91;98208.09;5029165;28;20140;-66
2022/07/21 09:54:52;;;;;;;1.50;1.40;;;;;;;19.46;58.74;98219.44;5027457;28;20403;-65
2022/07/21 09:57:19;;;;;;;4.35;1.40;;;;;;;19.52;57.75;98220.03;5027284;28;20475;-64
2022/07/21 09:59:46;;;;;;;1.40;1.30;;;;;;;19.66;56.81;98223.31;5026634;28;20358;-65
2022/07/21 10:02:19;;;;;;;1.45;1.35;;;;;;;19.74;57.18;98227.88;5026925;28;20068;-67
2022/07/21 10:04:56;;;;;;;1.63;1.40;;;;;;;19.83;57.34;98232.41;5026849;28;20045;-65
2022/07/21 10:07:22;;;;;;;1.73;1.50;;;;;;;19.91;54.96;98229.66;5029473;28;20041;-64
2022/07/21 10:09:48;;;;;;;4.05;1.60;;;;;;;19.88;54.62;98259.09;5028479;28;20033;-66
2022/07/21 10:12:15;;;;;;;1.52;1.42;;;;;;;20.00;54.83;98261.06;5024207;28;20053;-65
2022/07/21 10:14:42;;;;;;;2.25;1.48;;;;;;;20.09;53.42;98249.16;5028187;28;20103;-64
2022/07/21 10:17:09;;;;;;;2.05;1.80;;;;;;;20.26;54.14;98256.28;5027323;28;20458;-65
2022/07/21 10:19:42;;;;;;;2.78;1.58;;;;;;;20.56;53.81;98248.16;5026358;28;20255;-66
2022/07/21 10:22:21;;;;;;;3.58;2.00;;;;;;;20.52;53.94;98266.06;5025892;28;20521;-66
2022/07/21 10:24:47;;;;;;;1.55;1.45;;;;;;;20.56;53.50;98267.81;5026189;28;20058;-67
2022/07/21 10:27:13;;;;;;;1.70;1.60;;;;;;;20.57;54.61;98266.66;5027100;28;20037;-66
2022/07/21 10:29:49;;;;;;;1.92;1.70;;;;;;;20.65;54.56;98254.25;5019775;28;20043;-65
2022/07/21 10:32:17;;;;;;;1.83;1.73;;;;;;;20.85;54.96;98252.63;5044388;28;20128;-66
2022/07/21 10:34:43;;;;;;;1.88;1.60;;;;;;;21.03;53.06;98262.13;5050367;28;20041;-65
2022/07/21 10:37:09;;;;;;;1.70;1.60;;;;;;;21.09;50.25;98255.38;5050715;28;20045;-64
2022/07/21 10:39:35;;;;;;;1.88;1.73;;;;;;;21.22;50.81;98261.56;5049292;28;20178;-65
2022/07/21 10:42:14;;;;;;;1.60;1.50;;;;;;;21.21;51.12;98272.69;5031751;28;20049;-64
2022/07/21 10:44:44;;;;;;;1.58;1.48;;;;;;;21.24;52.27;98272.81;5049832;28;20529;-64
2022/07/21 10:47:19;;;;;;;2.05;1.85;;;;;;;21.40;52.66;98296.44;5048375;28;20056;-65
2022/07/21 10:50:00;;;;;;;3.00;1.48;;;;;;;21.32;50.15;98290.00;5049887;28;20191;-66
2022/07/21 10:52:35;;;;;;;1.98;1.67;;;;;;;21.47;50.29;98277.78;5049885;28;20056;-65
2022/07/21 10:55:10;;;;;;;2.30;1.80;;;;;;;21.59;50.27;98274.31;5049356;28;20080;-66
2022/07/21 10:57:43;;;;;;;1.90;1.70;;;;;;;21.68;49.42;98293.88;5035270;28;20053;-68
2022/07/21 11:00:29;;;;;;;2.35;1.70;;;;;;;21.77;49.97;98281.06;5038157;28;20042;-67
2022/07/21 11:03:00;;;;;;;1.50;1.40;;;;;;;21.61;50.91;98283.63;5041705;28;20069;-66
2022/07/21 11:05:28;;;;;;;1.67;1.58;;;;;;;21.52;50.91;98318.78;5037063;28;20510;-66
2022/07/21 11:08:13;;;;;;;1.65;1.50;;;;;;;21.53;50.90;98296.13;5052096;28;20041;-66
2022/07/21 11:10:52;;;;;;;2.03;1.45;;;;;;;21.42;51.22;98332.72;5041429;28;20037;-65
2022/07/21 11:13:22;;;;;;;1.63;1.52;;;;;;;21.32;50.57;98308.84;5049384;28;20114;-65
2022/07/21 11:16:00;;;;;;;1.70;1.60;;;;;;;21.26;51.00;98321.75;5036121;28;20041;-65
2022/07/21 11:18:30;;;;;;;2.13;1.85;;;;;;;20.92;52.78;98339.06;5039006;28;20041;-66
2022/07/21 11:21:00;;;;;;;2.47;2.03;;;;;;;20.69;54.25;98360.19;5053385;28;20098;-66
2022/07/21 11:23:35;;;;;;;;;;;;;;;20.48;57.21;98353.97;5050522;28;20417;-66
2022/07/21 11:26:01;;;;;;;1.88;1.77;;;;;;;20.09;57.16;98372.09;5038475;28;20161;-66
2022/07/21 11:28:27;;;;;;;2.30;2.10;;;;;;;20.13;57.82;98348.81;5049585;28;20052;-66
2022/07/21 11:31:21;;;;;;;3.33;2.15;;;;;;;20.08;58.32;98349.78;5042742;28;20064;-66
2022/07/21 11:33:48;;;;;;;3.03;2.10;;;;;;;20.13;57.82;98344.22;5033048;28;20384;-65
2022/07/21 11:36:51;;;;;;;2.50;1.98;;;;;;;20.13;57.29;98362.25;5032076;28;20025;-62
2022/07/21 11:39:45;;;;;;;4.05;2.00;;;;;;;20.36;55.41;98365.47;5049992;28;20048;-65